createdAt,value
2022-10-17T00:01:26.626Z,19.77
2022-10-17T00:03:54.741Z,21.30
2022-10-17T00:06:22.774Z,20.83
2022-10-17T00:08:50.860Z,20.67
2022-10-17T00:11:22.742Z,20.30
2022-10-17T00:13:55.301Z,18.80
2022-10-17T00:16:29.613Z,20.65
2022-10-17T00:18:59.994Z,18.45
2022-10-17T00:21:28.386Z,21.35
2022-10-17T00:23:59.934Z,20.45
2022-10-17T00:26:28.454Z,19.15
2022-10-17T00:28:57.390Z,19.27
2022-10-17T00:31:28.609Z,21.40
2022-10-17T00:33:56.631Z,19.80
2022-10-17T00:36:28.429Z,19.70
2022-10-17T00:38:59.202Z,20.10
2022-10-17T00:41:33.888Z,19.20
2022-10-17T00:44:30.859Z,19.55
2022-10-17T00:47:04.381Z,23.83
2022-10-17T00:49:35.486Z,19.10
2022-10-17T00:52:11.012Z,21.65
2022-10-17T00:54:45.040Z,21.10
2022-10-17T00:59:44.690Z,25.77
2022-10-17T01:02:20.770Z,25.85
2022-10-17T01:04:51.323Z,40.53
2022-10-17T01:07:19.388Z,23.30
2022-10-17T01:09:48.553Z,25.17
2022-10-17T01:12:53.323Z,22.30
2022-10-17T01:15:58.355Z,22.77
2022-10-17T01:21:01.525Z,20.92
2022-10-17T01:23:55.655Z,21.75
2022-10-17T01:26:31.485Z,21.67
2022-10-17T01:29:25.561Z,21.15
2022-10-17T01:32:13.657Z,20.63
2022-10-17T01:35:25.844Z,22.35
2022-10-17T01:38:14.252Z,22.63
2022-10-17T01:40:51.905Z,20.67
2022-10-17T01:43:24.011Z,21.80
2022-10-17T01:46:06.109Z,22.17
2022-10-17T01:48:38.420Z,23.55
2022-10-17T01:51:23.590Z,21.23
2022-10-17T01:54:08.161Z,21.60
2022-10-17T01:56:38.967Z,21.38
2022-10-17T01:59:18.638Z,22.27
2022-10-17T02:01:51.692Z,21.63
2022-10-17T02:04:19.900Z,21.95
2022-10-17T02:06:47.936Z,21.08
2022-10-17T02:09:26.893Z,23.50
2022-10-17T02:12:13.046Z,22.85
2022-10-17T02:15:11.012Z,21.48
2022-10-17T02:18:16.656Z,22.90
2022-10-17T02:20:56.705Z,22.48
2022-10-17T02:23:33.300Z,22.73
2022-10-17T02:26:01.279Z,24.08
2022-10-17T02:28:48.512Z,23.05
2022-10-17T02:31:32.061Z,24.58
2022-10-17T02:34:03.983Z,22.90
2022-10-17T02:36:41.973Z,24.20
2022-10-17T02:39:16.550Z,25.42
2022-10-17T02:41:46.890Z,20.15
2022-10-17T02:44:15.745Z,28.40
2022-10-17T02:46:49.128Z,28.20
2022-10-17T02:49:24.218Z,23.55
2022-10-17T02:52:05.485Z,27.67
2022-10-17T02:55:05.640Z,28.05
2022-10-17T02:58:00.684Z,29.25
2022-10-17T03:00:30.723Z,25.50
2022-10-17T03:02:58.773Z,25.80
2022-10-17T03:05:30.214Z,26.90
2022-10-17T03:08:01.155Z,26.92
2022-10-17T03:10:29.214Z,27.90
2022-10-17T03:13:00.155Z,28.17
2022-10-17T03:15:31.091Z,28.30
2022-10-17T03:17:59.070Z,28.00
2022-10-17T03:20:27.202Z,30.77
2022-10-17T03:22:55.404Z,31.67
2022-10-17T03:25:23.462Z,31.05
2022-10-17T03:27:51.472Z,29.63
2022-10-17T03:30:20.575Z,30.48
2022-10-17T03:32:51.193Z,30.17
2022-10-17T03:35:19.343Z,30.50
2022-10-17T03:37:47.411Z,30.92
2022-10-17T03:40:17.939Z,29.63
2022-10-17T03:42:46.005Z,29.50
2022-10-17T03:45:14.034Z,27.20
2022-10-17T03:47:42.108Z,26.70
2022-10-17T03:50:10.427Z,26.27
2022-10-17T03:52:38.493Z,26.65
2022-10-17T03:55:07.039Z,25.15
2022-10-17T03:57:42.163Z,27.10
2022-10-17T04:00:16.271Z,25.35
2022-10-17T04:02:44.311Z,32.33
2022-10-17T04:05:15.211Z,26.08
2022-10-17T04:07:43.264Z,27.45
2022-10-17T04:10:11.441Z,30.75
2022-10-17T04:12:39.737Z,29.02
2022-10-17T04:15:10.964Z,29.15
2022-10-17T04:17:38.999Z,28.05
2022-10-17T04:20:07.544Z,26.60
2022-10-17T04:22:35.659Z,28.88
2022-10-17T04:25:03.676Z,29.40
2022-10-17T04:27:31.874Z,26.40
2022-10-17T04:29:59.943Z,29.02
2022-10-17T04:32:31.147Z,26.67
2022-10-17T04:34:59.340Z,24.65
2022-10-17T04:37:30.343Z,24.85
2022-10-17T04:39:59.135Z,25.20
2022-10-17T04:42:27.493Z,23.20
2022-10-17T04:44:59.075Z,24.10
2022-10-17T04:47:27.165Z,24.92
2022-10-17T04:49:58.114Z,26.10
2022-10-17T04:52:26.577Z,25.73
2022-10-17T04:54:54.917Z,25.42
2022-10-17T04:57:22.941Z,26.70
2022-10-17T04:59:50.989Z,24.95
2022-10-17T05:02:21.457Z,26.60
2022-10-17T05:04:49.450Z,27.65
2022-10-17T05:07:17.434Z,27.45
2022-10-17T05:09:45.464Z,26.65
2022-10-17T05:12:15.886Z,27.52
2022-10-17T05:14:46.954Z,28.42
2022-10-17T05:17:15.006Z,26.45
2022-10-17T05:19:43.091Z,25.00
2022-10-17T05:22:11.167Z,27.52
2022-10-17T05:24:39.156Z,28.13
2022-10-17T05:27:07.157Z,28.63
2022-10-17T05:29:36.395Z,31.65
2022-10-17T05:32:04.477Z,30.83
2022-10-17T05:34:32.461Z,30.23
2022-10-17T05:37:05.707Z,35.50
2022-10-17T05:39:36.437Z,31.20
2022-10-17T05:42:08.109Z,32.88
2022-10-17T05:44:36.136Z,30.50
2022-10-17T05:47:04.147Z,31.88
2022-10-17T05:49:40.092Z,27.98
2022-10-17T05:52:14.220Z,27.48
2022-10-17T05:54:42.276Z,27.45
2022-10-17T05:57:10.342Z,28.17
2022-10-17T05:59:39.360Z,26.45
2022-10-17T06:02:10.615Z,26.77
2022-10-17T06:04:38.630Z,27.23
2022-10-17T06:07:06.667Z,26.45
2022-10-17T06:09:37.054Z,27.25
2022-10-17T06:12:05.271Z,26.58
2022-10-17T06:14:33.331Z,29.02
2022-10-17T06:17:04.026Z,27.35
2022-10-17T06:19:32.106Z,27.42
2022-10-17T06:22:00.133Z,28.88
2022-10-17T06:24:30.695Z,29.17
2022-10-17T06:26:58.719Z,25.88
2022-10-17T06:29:26.843Z,28.90
2022-10-17T06:31:54.836Z,29.20
2022-10-17T06:34:25.443Z,29.50
2022-10-17T06:39:30.095Z,28.85
2022-10-17T06:42:01.824Z,29.50
2022-10-17T06:44:29.838Z,29.33
2022-10-17T06:47:01.043Z,30.80
2022-10-17T06:49:32.088Z,29.80
2022-10-17T06:52:02.970Z,33.58
2022-10-17T06:54:31.008Z,33.75
2022-10-17T06:57:01.372Z,31.58
2022-10-17T06:59:29.416Z,29.95
2022-10-17T07:01:57.469Z,30.52
2022-10-17T07:04:28.245Z,30.88
2022-10-17T07:09:36.895Z,31.30
2022-10-17T07:12:05.173Z,23.00
2022-10-17T07:14:33.217Z,28.73
2022-10-17T07:17:01.398Z,31.08
2022-10-17T07:19:29.472Z,29.15
2022-10-17T07:21:59.928Z,29.45
2022-10-17T07:24:28.064Z,30.05
2022-10-17T07:26:56.050Z,31.45
2022-10-17T07:29:24.075Z,31.00
2022-10-17T07:31:52.062Z,32.42
2022-10-17T07:34:25.139Z,35.00
2022-10-17T07:36:53.117Z,36.03
2022-10-17T07:39:21.124Z,37.45
2022-10-17T07:41:50.689Z,34.45
2022-10-17T07:44:18.760Z,29.67
2022-10-17T07:46:46.825Z,31.48
2022-10-17T07:49:15.040Z,25.60
2022-10-17T07:51:43.248Z,26.55
2022-10-17T07:54:11.323Z,28.88
2022-10-17T07:56:41.996Z,27.23
2022-10-17T07:59:12.274Z,27.70
2022-10-17T08:01:40.301Z,26.25
2022-10-17T08:04:11.329Z,26.88
2022-10-17T08:06:39.324Z,27.05
2022-10-17T08:09:07.398Z,29.50
2022-10-17T08:11:35.484Z,30.08
2022-10-17T08:14:05.852Z,29.92
2022-10-17T08:16:33.893Z,26.90
2022-10-17T08:19:02.705Z,29.25
2022-10-17T08:21:31.194Z,28.17
2022-10-17T08:24:04.400Z,27.83
2022-10-17T08:26:32.400Z,21.80
2022-10-17T08:29:00.522Z,28.90
2022-10-17T08:31:28.798Z,29.08
2022-10-17T08:33:59.138Z,31.67
2022-10-17T08:36:30.260Z,33.22
2022-10-17T08:38:58.266Z,30.08
2022-10-17T08:41:44.106Z,33.45
2022-10-17T08:44:39.420Z,30.73
2022-10-17T08:47:13.820Z,29.98
2022-10-17T08:49:49.048Z,28.73
2022-10-17T08:52:29.043Z,29.27
2022-10-17T08:54:57.279Z,29.67
2022-10-17T08:57:25.355Z,25.00
2022-10-17T08:59:56.362Z,26.83
2022-10-17T09:02:42.647Z,25.33
2022-10-17T09:05:32.054Z,25.75
2022-10-17T09:08:14.677Z,24.40
2022-10-17T09:10:48.500Z,25.08
2022-10-17T09:16:25.966Z,22.67
2022-10-17T09:19:08.166Z,28.92
2022-10-17T09:22:17.330Z,29.77
2022-10-17T09:24:50.620Z,27.90
2022-10-17T09:27:45.171Z,27.35
2022-10-17T09:30:44.253Z,28.67
2022-10-17T09:33:34.880Z,25.80
2022-10-17T09:36:16.848Z,26.27
2022-10-17T09:39:13.414Z,30.10
2022-10-17T09:41:48.235Z,27.02
2022-10-17T09:44:38.657Z,32.10
2022-10-17T09:47:21.559Z,31.88
2022-10-17T09:49:50.475Z,28.98
2022-10-17T09:52:41.211Z,28.40
2022-10-17T09:55:47.522Z,28.65
2022-10-17T09:58:15.740Z,31.55
2022-10-17T10:00:48.569Z,26.92
2022-10-17T10:03:20.920Z,27.20
2022-10-17T10:06:07.383Z,27.30
2022-10-17T10:08:38.820Z,27.45
2022-10-17T10:11:13.806Z,25.02
2022-10-17T10:13:43.558Z,26.95
2022-10-17T10:16:30.693Z,27.92
2022-10-17T10:18:59.360Z,27.83
2022-10-17T10:21:28.490Z,27.40
2022-10-17T10:24:14.946Z,29.95
2022-10-17T10:26:53.178Z,30.65
2022-10-17T10:29:27.339Z,32.17
2022-10-17T10:31:55.464Z,27.92
2022-10-17T10:34:31.466Z,28.58
2022-10-17T10:37:06.408Z,28.63
2022-10-17T10:39:40.379Z,31.73
2022-10-17T10:42:19.820Z,29.85
2022-10-17T10:44:48.881Z,26.25
2022-10-17T10:47:18.599Z,26.02
2022-10-17T10:49:47.435Z,27.70
2022-10-17T10:52:41.229Z,27.73
2022-10-17T10:55:30.523Z,28.83
2022-10-17T10:58:04.225Z,30.10
2022-10-17T11:00:38.312Z,27.58
2022-10-17T11:03:21.899Z,29.17
2022-10-17T11:06:00.891Z,30.65
2022-10-17T11:08:39.167Z,33.60
2022-10-17T11:11:27.250Z,29.65
2022-10-17T11:14:20.087Z,30.38
2022-10-17T11:16:48.126Z,23.00
2022-10-17T11:19:45.163Z,25.83
2022-10-17T11:22:28.164Z,22.80
2022-10-17T11:27:30.394Z,27.48
2022-10-17T11:29:59.697Z,27.30
2022-10-17T11:32:46.083Z,31.40
2022-10-17T11:35:28.922Z,27.50
2022-10-17T11:38:26.914Z,28.88
2022-10-17T11:40:58.680Z,26.38
2022-10-17T11:43:41.549Z,35.88
2022-10-17T11:46:29.462Z,34.33
2022-10-17T11:49:20.224Z,30.75
2022-10-17T11:52:26.949Z,32.03
2022-10-17T11:55:18.953Z,34.15
2022-10-17T11:57:49.849Z,31.13
2022-10-17T12:00:41.667Z,31.70
2022-10-17T12:03:19.405Z,24.50
2022-10-17T12:05:50.178Z,24.00
2022-10-17T12:08:29.130Z,25.67
2022-10-17T12:11:35.695Z,27.80
2022-10-17T12:14:35.266Z,28.65
2022-10-17T12:17:04.796Z,31.23
2022-10-17T12:19:37.922Z,27.73
2022-10-17T12:22:26.914Z,17.42
2022-10-17T12:25:03.466Z,28.60
2022-10-17T12:27:48.907Z,36.45
2022-10-17T12:30:28.318Z,23.35
2022-10-17T12:33:11.138Z,27.77
2022-10-17T12:35:39.863Z,27.15
2022-10-17T12:38:19.313Z,26.67
2022-10-17T12:40:49.017Z,31.95
2022-10-17T12:43:17.161Z,26.63
2022-10-17T12:45:50.059Z,31.33
2022-10-17T12:48:38.710Z,31.03
2022-10-17T12:51:34.785Z,32.47
2022-10-17T12:54:09.921Z,29.83
2022-10-17T12:56:46.637Z,29.83
2022-10-17T12:59:29.677Z,29.48
2022-10-17T13:02:06.788Z,28.10
2022-10-17T13:04:40.554Z,27.05
2022-10-17T13:09:45.585Z,26.33
2022-10-17T13:12:24.318Z,24.45
2022-10-17T13:14:58.319Z,22.35
2022-10-17T13:17:31.325Z,23.65
2022-10-17T13:19:59.883Z,26.52
2022-10-17T13:22:33.468Z,22.25
2022-10-17T13:25:10.993Z,25.77
2022-10-17T13:27:39.016Z,26.52
2022-10-17T13:30:32.331Z,24.92
2022-10-17T13:33:01.641Z,24.00
2022-10-17T13:35:58.892Z,26.30
2022-10-17T13:38:29.017Z,22.95
2022-10-17T13:41:05.851Z,114.80
2022-10-17T13:43:39.269Z,240.70
2022-10-17T13:46:32.317Z,189.68
2022-10-17T13:48:59.018Z,27.90
2022-10-17T13:51:28.416Z,24.33
2022-10-17T13:53:56.600Z,25.00
2022-10-17T13:56:29.786Z,26.48
2022-10-17T14:01:30.917Z,23.02
2022-10-17T14:04:19.595Z,27.35
2022-10-17T14:06:49.630Z,28.67
2022-10-17T14:09:22.821Z,29.17
2022-10-17T14:12:01.980Z,31.40
2022-10-17T14:14:41.473Z,28.60
2022-10-17T14:17:30.160Z,31.65
2022-10-17T14:20:40.362Z,28.27
2022-10-17T14:23:21.103Z,26.08
2022-10-17T14:25:42.714Z,23.30
2022-10-17T14:28:13.485Z,26.67
2022-10-17T14:30:56.128Z,26.13
2022-10-17T14:33:29.258Z,26.13
2022-10-17T14:35:59.515Z,25.75
2022-10-17T14:38:29.323Z,27.80
2022-10-17T14:44:08.467Z,28.55
2022-10-17T14:46:37.643Z,23.75
2022-10-17T14:49:24.548Z,26.35
2022-10-17T14:52:13.710Z,29.98
2022-10-17T14:54:50.428Z,34.13
2022-10-17T14:57:23.853Z,31.70
2022-10-17T14:59:54.694Z,31.67
2022-10-17T15:02:29.105Z,26.30
2022-10-17T15:04:57.483Z,23.58
2022-10-17T15:07:25.461Z,22.65
2022-10-17T15:09:54.335Z,22.75
2022-10-17T15:12:26.320Z,24.85
2022-10-17T15:14:54.867Z,23.70
2022-10-17T15:17:30.762Z,24.88
2022-10-17T15:19:59.406Z,24.58
2022-10-17T15:22:27.857Z,23.52
2022-10-17T15:24:56.079Z,24.23
2022-10-17T15:27:25.603Z,25.70
2022-10-17T15:29:53.659Z,26.80
2022-10-17T15:32:21.834Z,25.95
2022-10-17T15:34:50.385Z,25.70
2022-10-17T15:37:24.015Z,24.73
2022-10-17T15:39:55.976Z,27.70
2022-10-17T15:42:30.400Z,22.48
2022-10-17T15:45:01.412Z,24.95
2022-10-17T15:47:32.208Z,24.80
2022-10-17T15:50:05.801Z,24.83
2022-10-17T15:52:33.862Z,26.08
2022-10-17T15:55:04.382Z,24.65
2022-10-17T15:57:39.464Z,24.88
2022-10-17T16:02:39.813Z,24.48
2022-10-17T16:05:17.416Z,25.30
2022-10-17T16:07:46.780Z,24.33
2022-10-17T16:10:18.789Z,25.65
2022-10-17T16:12:50.452Z,27.77
2022-10-17T16:15:32.841Z,24.40
2022-10-17T16:18:05.979Z,25.42
2022-10-17T16:20:38.607Z,23.25
2022-10-17T16:23:07.497Z,22.38
2022-10-17T16:25:38.233Z,22.55
2022-10-17T16:28:07.747Z,22.50
2022-10-17T16:30:41.864Z,22.02
2022-10-17T16:33:09.919Z,22.35
2022-10-17T16:35:40.804Z,21.60
2022-10-17T16:38:08.921Z,22.67
2022-10-17T16:40:39.400Z,22.85
2022-10-17T16:43:08.229Z,20.33
2022-10-17T16:45:37.338Z,20.85
2022-10-17T16:48:07.293Z,21.48
2022-10-17T16:50:41.204Z,20.45
2022-10-17T16:55:36.920Z,20.02
2022-10-17T16:58:05.764Z,20.50
2022-10-17T17:00:33.918Z,19.10
2022-10-17T17:03:03.944Z,18.33
2022-10-17T17:05:31.973Z,18.42
2022-10-17T17:07:59.992Z,19.33
2022-10-17T17:10:28.145Z,19.05
2022-10-17T17:12:56.199Z,19.73
2022-10-17T17:15:24.248Z,17.77
2022-10-17T17:17:55.603Z,18.75
2022-10-17T17:20:24.023Z,18.08
2022-10-17T17:22:52.301Z,20.17
2022-10-17T17:25:20.376Z,21.23
2022-10-17T17:27:48.547Z,19.08
2022-10-17T17:30:16.894Z,19.55
2022-10-17T17:32:44.928Z,17.05
2022-10-17T17:35:13.557Z,19.30
2022-10-17T17:37:41.553Z,18.70
2022-10-17T17:40:10.004Z,19.63
2022-10-17T17:42:38.031Z,19.35
2022-10-17T17:45:06.638Z,18.05
2022-10-17T17:47:34.674Z,19.52
2022-10-17T17:50:06.315Z,18.15
2022-10-17T17:52:37.350Z,16.88
2022-10-17T17:55:11.252Z,17.23
2022-10-17T17:57:39.686Z,16.42
2022-10-17T18:00:08.424Z,15.93
2022-10-17T18:02:42.101Z,16.58
2022-10-17T18:05:12.455Z,16.35
2022-10-17T18:07:40.556Z,17.50
2022-10-17T18:12:45.829Z,17.40
2022-10-17T18:15:13.985Z,18.08
2022-10-17T18:17:42.386Z,17.33
2022-10-17T18:20:13.438Z,16.98
2022-10-17T18:22:44.389Z,18.77
2022-10-17T18:25:12.426Z,17.00
2022-10-17T18:27:40.489Z,17.17
2022-10-17T18:30:09.132Z,15.55
2022-10-17T18:32:39.762Z,17.33
2022-10-17T18:35:10.882Z,18.75
2022-10-17T18:37:38.983Z,17.27
2022-10-17T18:40:07.794Z,16.38
2022-10-17T18:42:35.896Z,16.77
2022-10-17T18:45:04.029Z,17.55
2022-10-17T18:47:32.511Z,19.55
2022-10-17T18:50:00.664Z,17.52
2022-10-17T18:52:28.753Z,20.48
2022-10-17T18:54:56.796Z,20.77
2022-10-17T18:57:26.262Z,22.05
2022-10-17T18:59:54.505Z,23.52
2022-10-17T19:02:22.532Z,23.42
2022-10-17T19:04:50.641Z,22.40
2022-10-17T19:07:21.449Z,23.38
2022-10-17T19:09:49.709Z,22.40
2022-10-17T19:12:20.645Z,22.55
2022-10-17T19:14:51.147Z,24.02
2022-10-17T19:17:19.145Z,23.38
2022-10-17T19:19:50.078Z,22.63
2022-10-17T19:22:18.220Z,22.52
2022-10-17T19:24:49.261Z,21.92
2022-10-17T19:27:20.161Z,22.80
2022-10-17T19:29:48.172Z,21.83
2022-10-17T19:32:18.109Z,21.02
2022-10-17T19:34:48.729Z,23.98
2022-10-17T19:37:16.764Z,22.50
2022-10-17T19:39:50.058Z,23.38
2022-10-17T19:42:21.019Z,22.73
2022-10-17T19:44:49.107Z,25.17
2022-10-17T19:47:17.222Z,24.38
2022-10-17T19:49:49.720Z,24.27
2022-10-17T19:52:18.168Z,23.75
2022-10-17T19:54:46.186Z,24.58
2022-10-17T19:57:14.226Z,25.38
2022-10-17T19:59:42.232Z,23.85
2022-10-17T20:02:13.338Z,24.15
2022-10-17T20:04:49.719Z,22.42
2022-10-17T20:07:29.519Z,23.13
2022-10-17T20:09:57.534Z,23.52
2022-10-17T20:12:25.551Z,23.70
2022-10-17T20:14:53.615Z,23.92
2022-10-17T20:17:24.090Z,25.02
2022-10-17T20:19:52.189Z,22.80
2022-10-17T20:22:20.362Z,25.65
2022-10-17T20:24:48.595Z,22.02
2022-10-17T20:27:19.025Z,23.23
2022-10-17T20:29:47.309Z,23.73
2022-10-17T20:32:15.394Z,22.92
2022-10-17T20:34:43.445Z,22.98
2022-10-17T20:37:11.467Z,24.77
2022-10-17T20:39:40.221Z,23.42
2022-10-17T20:42:08.280Z,23.08
2022-10-17T20:44:36.351Z,23.25
2022-10-17T20:47:16.023Z,23.20
2022-10-17T20:49:44.553Z,20.55
2022-10-17T20:52:13.174Z,23.38
2022-10-17T20:54:42.212Z,22.77
2022-10-17T20:57:10.319Z,21.95
2022-10-17T20:59:41.297Z,20.85
2022-10-17T21:02:13.845Z,21.52
2022-10-17T21:04:46.251Z,21.00
2022-10-17T21:07:16.949Z,21.65
2022-10-17T21:09:45.006Z,20.33
2022-10-17T21:12:18.179Z,21.20
2022-10-17T21:14:56.912Z,19.55
2022-10-17T21:17:25.119Z,19.88
2022-10-17T21:19:53.140Z,19.40
2022-10-17T21:22:26.458Z,20.25
2022-10-17T21:24:54.687Z,20.10
2022-10-17T21:27:22.678Z,21.30
2022-10-17T21:29:50.717Z,20.73
2022-10-17T21:32:31.993Z,23.98
2022-10-17T21:35:07.575Z,22.52
2022-10-17T21:37:35.698Z,21.95
2022-10-17T21:40:03.853Z,21.17
2022-10-17T21:42:34.840Z,21.75
2022-10-17T21:45:10.779Z,21.92
2022-10-17T21:47:55.016Z,20.67
2022-10-17T21:50:29.241Z,21.73
2022-10-17T21:52:59.340Z,18.98
2022-10-17T21:55:27.407Z,20.52
2022-10-17T21:57:55.452Z,20.52
2022-10-17T22:00:23.613Z,20.52
2022-10-17T22:02:51.701Z,19.05
2022-10-17T22:05:19.677Z,18.30
2022-10-17T22:07:48.264Z,19.23
2022-10-17T22:10:16.402Z,19.58
2022-10-17T22:12:44.451Z,19.33
2022-10-17T22:17:42.904Z,18.38
2022-10-17T22:20:11.019Z,19.15
2022-10-17T22:22:39.006Z,17.92
2022-10-17T22:25:10.755Z,18.45
2022-10-17T22:27:38.844Z,19.30
2022-10-17T22:30:07.905Z,17.88
2022-10-17T22:32:38.245Z,18.50
2022-10-17T22:35:06.762Z,17.00
2022-10-17T22:37:34.912Z,17.38
2022-10-17T22:40:03.294Z,18.17
2022-10-17T22:42:33.990Z,17.73
2022-10-17T22:45:04.494Z,18.55
2022-10-17T22:47:32.854Z,18.08
2022-10-17T22:50:01.149Z,18.23
2022-10-17T22:52:29.383Z,16.35
2022-10-17T22:55:00.030Z,18.17
2022-10-17T22:57:30.417Z,19.27
2022-10-17T22:59:58.420Z,18.15
2022-10-17T23:02:26.471Z,19.60
2022-10-17T23:04:57.405Z,20.65
2022-10-17T23:07:25.790Z,19.85
2022-10-17T23:09:53.997Z,18.55
2022-10-17T23:12:22.274Z,18.90
2022-10-17T23:14:53.179Z,19.45
2022-10-17T23:17:21.196Z,20.42
2022-10-17T23:19:50.930Z,19.67
2022-10-17T23:22:21.005Z,19.33
2022-10-17T23:24:49.129Z,21.75
2022-10-17T23:27:17.234Z,18.88
2022-10-17T23:29:45.279Z,18.45
2022-10-17T23:32:13.347Z,19.17
2022-10-17T23:34:43.714Z,19.73
2022-10-17T23:37:12.107Z,18.55
2022-10-17T23:39:43.085Z,22.85
2022-10-17T23:42:11.114Z,18.42
2022-10-17T23:44:39.152Z,19.30
2022-10-17T23:47:07.291Z,20.90
2022-10-17T23:49:35.272Z,21.30
2022-10-17T23:52:06.142Z,21.30
2022-10-17T23:54:34.276Z,20.55
2022-10-17T23:57:02.360Z,20.70
2022-10-17T23:59:30.454Z,21.02
